Flight Track Log - Related Links

Times and Time Zones

All times are in EDT time to prevent confusion due to time zone crossing. See the RAX81 flight status page for this flight to view local times or setup timezone preferences in your user account.

Time Position Orientation Groundspeed Altitude Reporting Facility
EDT Latitude Longitude Course Direction KTS MPH feet Rate Location/Type
Mon 04:20:43 AM 37.4717 -77.2431 119° Southeast 176 203 2,500  Level Washington Center
Mon 04:21:43 AM 37.4994 -77.1886 57° Northeast 176 203 3,900 1,289 Climbing Washington Center
Mon 04:22:44 AM 37.5253 -77.1314 60° Northeast 181 208 5,100 1,350 Climbing Washington Center
Mon 04:23:43 AM 37.5550 -77.0744 57° Northeast 186 214 6,600 1,462 Climbing Washington Center
Mon 04:24:43 AM 37.5808 -77.0200 59° Northeast 186 214 8,000 1,190 Climbing Washington Center
Mon 04:25:44 AM 37.6064 -76.9653 59° Northeast 181 208 9,000 500 Climbing Washington Center
Mon 04:26:43 AM 37.6364 -76.8925 62° Northeast 186 214 9,000 807 Level Washington Center
Mon 04:27:43 AM 37.6642 -76.8328 60° Northeast 203 234 10,600 1,537 Climbing Washington Center
Mon 04:28:44 AM 37.6897 -76.7806 58° Northeast 189 217 12,100 1,041 Climbing Washington Center
Mon 04:29:44 AM 37.7256 -76.7339 46° Northeast 176 203 12,700 353 Climbing Washington Center
Mon 04:30:43 AM 37.7781 -76.7111 19° North 176 203 12,800 98 Climbing Washington Center
Mon 04:31:46 AM 37.8408 -76.6936 12° North 198 228 12,900 50 Climbing Washington Center
Mon 04:32:43 AM 37.9056 -76.6733 14° North 222 255 12,900  Level Washington Center
Mon 04:33:43 AM 37.9683 -76.6533 14° North 232 267 12,900 50 Level Washington Center
Mon 04:34:43 AM 38.0331 -76.6331 14° North 232 267 13,000 49 Climbing Washington Center
Mon 04:35:45 AM 38.1000 -76.6131 13° North 238 274 13,000  Level Washington Center
Mon 04:36:45 AM 38.1628 -76.5953 13° North 238 274 13,000  Level Washington Center
Mon 04:37:43 AM 38.2275 -76.5722 16° North 238 274 13,000  Level Washington Center
Mon 04:38:43 AM 38.2903 -76.5467 18° North 238 274 13,000  Level Washington Center
Mon 04:39:43 AM 38.3594 -76.5264 13° North 238 274 13,000 -50 Level Washington Center
Mon 04:40:44 AM 38.4222 -76.4981 19° North 238 274 12,900 -50 Descending Washington Center
Mon 04:41:43 AM 38.4869 -76.4750 16° North 238 274 12,900  Level Washington Center
Mon 04:42:43 AM 38.5456 -76.4492 19° North 243 280 12,900  Level Washington Center
Mon 04:43:43 AM 38.6081 -76.4233 18° North 243 280 12,900  Level Washington Center
Mon 04:44:21 AM 38.6500 -76.4000 23° Northeast 241 277 12,900  Level Potomac TRACON
Mon 04:45:21 AM 38.7167 -76.3500 30° Northeast 246 283 12,900  Level Potomac TRACON
Mon 04:45:45 AM 38.7256 -76.3447 25° Northeast 238 274 12,900  Level Washington Center
Mon 04:46:44 AM 38.7883 -76.3053 26° Northeast 238 274 12,900  Level Washington Center
Mon 04:47:43 AM 38.8447 -76.2658 29° Northeast 238 274 12,900  Level Washington Center
Mon 04:48:43 AM 38.9075 -76.2264 26° Northeast 238 274 12,900  Level Washington Center
Mon 04:49:43 AM 38.9681 -76.1869 27° Northeast 238 274 12,900  Level Washington Center
Mon 04:50:46 AM 39.0350 -76.1475 25° Northeast 243 280 12,900 -152 Level Washington Center
Mon 04:52:21 AM 39.1333 -76.0667 33° Northeast 250 288 12,500 -348 Descending Philadelphia TRACON
Mon 04:53:21 AM 39.2000 -76.0333 21° North 258 297 12,000 -200 Descending Philadelphia TRACON
Mon 04:54:21 AM 39.2667 -75.9833 30° Northeast 250 288 12,100 50 Climbing Philadelphia TRACON
Mon 04:55:21 AM 39.3167 -75.9500 27° Northeast 241 277 12,100  Level Philadelphia TRACON
Mon 04:56:21 AM 39.3833 -75.9167 21° North 242 278 12,100  Level Philadelphia TRACON
Mon 04:57:16 AM 39.4333 -75.8667 38° Northeast 242 278 12,100 -52 Level Philadelphia TRACON
Mon 04:58:16 AM 39.5000 -75.8333 21° North 248 285 12,000 -50 Descending Philadelphia TRACON
Mon 04:59:16 AM 39.5500 -75.7667 46° Northeast 245 282 12,000  Level Philadelphia TRACON
Mon 05:00:16 AM 39.6000 -75.7000 46° Northeast 247 284 12,000  Level Philadelphia TRACON
Mon 05:01:16 AM 39.6500 -75.6500 38° Northeast 248 285 12,000  Level Philadelphia TRACON
Mon 05:02:16 AM 39.7000 -75.5833 46° Northeast 250 288 12,000  Level Philadelphia TRACON
Mon 05:03:16 AM 39.7500 -75.5333 38° Northeast 247 284 12,000  Level Philadelphia TRACON
Mon 05:04:16 AM 39.8167 -75.4833 30° Northeast 247 284 12,000  Level Philadelphia TRACON
Mon 05:05:16 AM 39.8667 -75.4333 38° Northeast 244 281 12,000  Level Philadelphia TRACON
Mon 05:06:16 AM 39.9167 -75.3833 37° Northeast 244 281 12,000  Level Philadelphia TRACON
Mon 05:07:16 AM 39.9667 -75.3333 37° Northeast 245 282 12,000  Level Philadelphia TRACON
Mon 05:08:16 AM 40.0333 -75.2667 37° Northeast 245 282 12,000  Level Philadelphia TRACON
Mon 05:09:17 AM 40.0833 -75.2167 37° Northeast 245 282 12,000 -397 Level Philadelphia TRACON
Mon 05:10:17 AM 40.1333 -75.1667 37° Northeast 262 302 11,200 -790 Descending Philadelphia TRACON
Mon 05:12:04 AM 40.2500 -75.0667 33° Northeast 267 307 9,800 -754 Descending New York TRACON
Mon 05:13:04 AM 40.3000 -75.0000 45° Northeast 267 307 9,100 -700 Descending New York TRACON
Mon 05:14:04 AM 40.3333 -74.9167 62° Northeast 260 299 8,400 -1,100 Descending New York TRACON
Mon 05:15:04 AM 40.3833 -74.8333 52° Northeast 266 306 6,900 -1,476 Descending New York TRACON
Mon 05:16:10 AM 40.4333 -74.7500 52° Northeast 265 305 5,300 -1,350 Descending New York TRACON
Mon 05:17:04 AM 40.4667 -74.6833 57° Northeast 260 299 4,200 -1,158 Descending New York TRACON
Mon 05:18:04 AM 40.5000 -74.6000 62° Northeast 256 295 3,100 -600 Descending New York TRACON
Mon 05:19:04 AM 40.5333 -74.5167 62° Northeast 249 287 3,000  Descending New York TRACON
Mon 05:19:58 AM 40.5833 -74.4500 45° Northeast 250 288 3,100 -158 Climbing New York TRACON
Mon 05:20:58 AM 40.6333 -74.4000 37° Northeast 251 289 2,700 -500 Descending New York TRACON
Mon 05:21:58 AM 40.6667 -74.3167 62° Northeast 253 291 2,100 -316 Descending New York TRACON
Mon 05:22:52 AM 40.7167 -74.2667 37° Northeast 237 273 2,100 -316 Level New York TRACON
Mon 05:23:52 AM 40.7500 -74.2167 49° Northeast 214 246 1,500 -316 Descending New York TRACON
Mon 05:24:46 AM 40.7833 -74.1667 49° Northeast 165 190 1,500 -105 Level New York TRACON
Mon 05:25:46 AM 40.8167 -74.1333 37° Northeast 137 158 1,300 -500 Descending New York TRACON
Mon 05:26:46 AM 40.8333 -74.1000 57° Northeast 123 142 500 -800 Descending New York TRACON
Mon 05:28:00 AM 40.8501 -74.0608 48° Northeast  Level Estimated
Mon 05:35:00 AM 40.8501 -74.0608 48° Northeast  Level Estimated
Mon 05:36:00 AM 40.8501 -74.0608 48° Northeast  Level Estimated

Login

Don't have an account? Register now (free) for customized features, flight alerts, and more!